createdAt,value
2019-05-19T00:00:29.625Z,99.90
2019-05-19T00:02:56.907Z,99.90
2019-05-19T00:05:24.282Z,99.90
2019-05-19T00:07:51.640Z,99.90
2019-05-19T00:10:18.863Z,99.90
2019-05-19T00:12:46.146Z,99.90
2019-05-19T00:15:13.484Z,99.90
2019-05-19T00:18:00.203Z,99.90
2019-05-19T00:20:27.434Z,99.90
2019-05-19T00:22:54.767Z,99.90
2019-05-19T00:25:22.033Z,99.90
2019-05-19T00:27:49.408Z,99.90
2019-05-19T00:30:16.649Z,99.90
2019-05-19T00:32:43.925Z,99.90
2019-05-19T00:35:11.359Z,99.90
2019-05-19T00:37:38.597Z,99.90
2019-05-19T00:40:05.931Z,99.90
2019-05-19T00:42:33.197Z,99.90
2019-05-19T00:45:00.426Z,99.90
2019-05-19T00:47:27.712Z,99.90
2019-05-19T00:49:55.188Z,99.90
2019-05-19T00:52:22.455Z,99.90
2019-05-19T00:54:49.707Z,99.90
2019-05-19T00:57:16.957Z,99.90
2019-05-19T00:59:45.074Z,99.90
2019-05-19T01:02:12.344Z,99.90
2019-05-19T01:04:39.567Z,99.90
2019-05-19T01:07:06.784Z,99.90
2019-05-19T01:09:34.024Z,99.90
2019-05-19T01:12:01.243Z,99.90
2019-05-19T01:14:28.475Z,99.90
2019-05-19T01:16:55.719Z,99.90
2019-05-19T01:19:22.964Z,99.90
2019-05-19T01:21:50.908Z,99.90
2019-05-19T01:24:18.275Z,99.90
2019-05-19T01:26:45.547Z,99.90
2019-05-19T01:29:12.915Z,99.90
2019-05-19T01:31:40.231Z,99.90
2019-05-19T01:34:07.560Z,99.90
2019-05-19T01:36:34.802Z,99.90
2019-05-19T01:39:02.067Z,99.90
2019-05-19T01:41:29.355Z,99.90
2019-05-19T01:43:56.683Z,99.90
2019-05-19T01:46:24.171Z,99.90
2019-05-19T01:48:51.448Z,99.90
2019-05-19T01:51:18.720Z,99.90
2019-05-19T01:53:45.951Z,99.90
2019-05-19T01:56:13.196Z,99.90
2019-05-19T01:58:40.408Z,99.90
2019-05-19T02:01:07.636Z,99.90
2019-05-19T02:03:35.823Z,99.90
2019-05-19T02:06:03.481Z,99.90
2019-05-19T02:08:31.925Z,99.90
2019-05-19T02:10:59.649Z,99.90
2019-05-19T02:13:27.316Z,99.90
2019-05-19T02:15:55.002Z,99.90
2019-05-19T02:18:25.253Z,99.90
2019-05-19T02:20:52.525Z,99.90
2019-05-19T02:23:19.766Z,99.90
2019-05-19T02:25:46.999Z,99.90
2019-05-19T02:28:14.235Z,99.90
2019-05-19T02:30:41.461Z,99.90
2019-05-19T02:33:08.786Z,99.90
2019-05-19T02:35:36.036Z,99.90
2019-05-19T02:38:03.284Z,99.90
2019-05-19T02:40:32.357Z,99.90
2019-05-19T02:43:00.707Z,99.90
2019-05-19T02:45:30.746Z,99.90
2019-05-19T02:47:59.195Z,99.90
2019-05-19T02:50:28.436Z,99.90
2019-05-19T02:52:56.310Z,99.90
2019-05-19T02:55:24.331Z,99.90
2019-05-19T02:57:52.963Z,99.90
2019-05-19T03:00:32.294Z,99.90
2019-05-19T03:02:59.556Z,99.90
2019-05-19T03:05:26.828Z,99.90
2019-05-19T03:07:54.164Z,99.90
2019-05-19T03:10:21.401Z,99.90
2019-05-19T03:12:48.721Z,99.90
2019-05-19T03:15:15.997Z,99.90
2019-05-19T03:17:43.387Z,99.90
2019-05-19T03:20:10.719Z,99.90
2019-05-19T03:22:37.964Z,99.90
2019-05-19T03:25:05.590Z,99.90
2019-05-19T03:27:32.803Z,99.90
2019-05-19T03:30:19.597Z,99.90
2019-05-19T03:32:51.605Z,99.90
2019-05-19T03:35:18.851Z,99.90
2019-05-19T03:37:46.194Z,99.90
2019-05-19T03:40:19.198Z,99.90
2019-05-19T03:42:47.571Z,99.90
2019-05-19T03:45:14.827Z,99.90
2019-05-19T03:47:42.154Z,99.90
2019-05-19T03:50:09.387Z,99.90
2019-05-19T03:52:36.680Z,99.90
2019-05-19T03:55:04.164Z,99.90
2019-05-19T03:57:31.381Z,99.90
2019-05-19T03:59:58.635Z,99.90
2019-05-19T04:02:25.882Z,99.90
2019-05-19T04:04:53.219Z,99.90
2019-05-19T04:07:20.455Z,99.90
2019-05-19T04:09:47.712Z,99.90
2019-05-19T04:12:15.040Z,99.90
2019-05-19T04:14:42.251Z,99.90
2019-05-19T04:17:09.525Z,99.90
2019-05-19T04:19:36.887Z,99.90
2019-05-19T04:22:04.266Z,99.90
2019-05-19T04:24:31.908Z,99.90
2019-05-19T04:26:59.280Z,99.90
2019-05-19T04:29:26.536Z,99.90
2019-05-19T04:31:53.772Z,99.90
2019-05-19T04:34:21.013Z,99.90
2019-05-19T04:36:48.247Z,99.90
2019-05-19T04:39:15.479Z,99.90
2019-05-19T04:41:42.784Z,99.90
2019-05-19T04:44:10.132Z,99.90
2019-05-19T04:46:37.350Z,99.90
2019-05-19T04:49:04.567Z,99.90
2019-05-19T04:51:31.799Z,99.90
2019-05-19T04:53:59.045Z,99.90
2019-05-19T04:56:26.432Z,99.90
2019-05-19T04:58:53.651Z,99.90
2019-05-19T05:01:20.892Z,99.90
2019-05-19T05:03:48.100Z,99.90
2019-05-19T05:06:15.397Z,99.90
2019-05-19T05:08:42.739Z,99.90
2019-05-19T05:11:09.998Z,99.90
2019-05-19T05:13:37.248Z,99.90
2019-05-19T05:16:04.486Z,99.90
2019-05-19T05:18:31.716Z,99.90
2019-05-19T05:20:58.960Z,99.90
2019-05-19T05:23:26.239Z,99.90
2019-05-19T05:25:53.463Z,99.90
2019-05-19T05:28:20.686Z,99.90
2019-05-19T05:30:47.925Z,99.90
2019-05-19T05:33:15.154Z,99.90
2019-05-19T05:35:42.432Z,99.90
2019-05-19T05:38:09.764Z,99.90
2019-05-19T05:40:36.983Z,99.90
2019-05-19T05:43:04.261Z,99.90
2019-05-19T05:45:31.627Z,99.90
2019-05-19T05:47:58.939Z,99.90
2019-05-19T05:50:26.183Z,99.90
2019-05-19T05:52:53.483Z,99.90
2019-05-19T05:55:20.736Z,99.90
2019-05-19T05:57:47.959Z,99.90
2019-05-19T06:00:16.084Z,99.90
2019-05-19T06:02:45.358Z,99.90
2019-05-19T06:05:12.720Z,99.90
2019-05-19T06:07:40.102Z,99.90
2019-05-19T06:10:07.654Z,99.90
2019-05-19T06:12:34.951Z,99.90
2019-05-19T06:15:02.307Z,99.90
2019-05-19T06:17:29.539Z,99.90
2019-05-19T06:19:56.818Z,99.90
2019-05-19T06:22:24.080Z,99.90
2019-05-19T06:24:51.412Z,99.90
2019-05-19T06:27:18.797Z,99.90
2019-05-19T06:29:46.139Z,99.90
2019-05-19T06:32:29.472Z,99.90
2019-05-19T06:34:56.704Z,99.90
2019-05-19T06:37:23.980Z,99.90
2019-05-19T06:39:51.404Z,99.90
2019-05-19T06:42:18.656Z,99.90
2019-05-19T06:44:45.920Z,99.90
2019-05-19T06:47:13.164Z,99.90
2019-05-19T06:49:40.403Z,99.90
2019-05-19T06:52:07.637Z,99.90
2019-05-19T06:54:39.100Z,99.90
2019-05-19T06:57:06.406Z,99.90
2019-05-19T06:59:34.283Z,99.90
2019-05-19T07:02:01.679Z,99.90
2019-05-19T07:04:29.033Z,99.90
2019-05-19T07:06:58.999Z,99.90
2019-05-19T07:09:26.743Z,99.90
2019-05-19T07:11:54.196Z,99.90
2019-05-19T07:14:21.531Z,99.90
2019-05-19T07:16:50.906Z,99.90
2019-05-19T07:19:18.181Z,99.90
2019-05-19T07:21:46.666Z,99.90
2019-05-19T07:24:17.271Z,99.90
2019-05-19T07:26:44.531Z,99.90
2019-05-19T07:29:12.646Z,99.90
2019-05-19T07:31:39.960Z,99.90
2019-05-19T07:34:09.074Z,99.90
2019-05-19T07:36:36.396Z,99.90
2019-05-19T07:39:05.402Z,99.90
2019-05-19T07:41:33.246Z,99.90
2019-05-19T07:44:01.753Z,99.90
2019-05-19T07:46:29.115Z,99.90
2019-05-19T07:48:56.378Z,99.90
2019-05-19T07:51:23.646Z,99.90
2019-05-19T07:53:51.104Z,99.90
2019-05-19T07:56:18.556Z,99.90
2019-05-19T07:58:45.827Z,99.90
2019-05-19T08:01:13.079Z,99.90
2019-05-19T08:03:40.396Z,99.90
2019-05-19T08:06:09.090Z,99.90
2019-05-19T08:08:36.413Z,99.90
2019-05-19T08:11:03.920Z,99.90
2019-05-19T08:13:31.260Z,99.90
2019-05-19T08:15:58.629Z,99.90
2019-05-19T08:18:25.925Z,99.90
2019-05-19T08:20:54.315Z,99.90
2019-05-19T08:23:21.845Z,99.90
2019-05-19T08:25:49.263Z,99.90
2019-05-19T08:28:16.601Z,99.90
2019-05-19T08:30:43.960Z,99.90
2019-05-19T08:33:11.923Z,99.90
2019-05-19T08:35:39.320Z,99.90
2019-05-19T08:38:06.592Z,99.90
2019-05-19T08:40:34.026Z,99.90
2019-05-19T08:43:01.331Z,99.90
2019-05-19T08:45:28.643Z,99.90
2019-05-19T08:47:55.892Z,99.90
2019-05-19T08:50:23.268Z,99.90
2019-05-19T08:52:50.517Z,99.90
2019-05-19T08:55:17.853Z,99.90
2019-05-19T08:57:45.147Z,99.90
2019-05-19T09:00:12.664Z,99.90
2019-05-19T09:02:39.949Z,99.90
2019-05-19T09:05:07.895Z,99.90
2019-05-19T09:07:35.144Z,99.90
2019-05-19T09:10:02.521Z,99.90
2019-05-19T09:12:29.900Z,99.90
2019-05-19T09:14:57.154Z,99.90
2019-05-19T09:17:24.439Z,99.90
2019-05-19T09:19:51.703Z,99.90
2019-05-19T09:22:19.072Z,99.90
2019-05-19T09:24:46.339Z,99.90
2019-05-19T09:27:13.671Z,99.90
2019-05-19T09:29:41.039Z,99.90
2019-05-19T09:32:08.395Z,99.90
2019-05-19T09:34:35.776Z,99.90
2019-05-19T09:37:03.036Z,99.90
2019-05-19T09:39:30.289Z,99.90
2019-05-19T09:41:57.606Z,99.90
2019-05-19T09:44:24.922Z,99.90
2019-05-19T09:46:54.087Z,99.90
2019-05-19T09:49:34.524Z,99.90
2019-05-19T09:52:03.417Z,99.90
2019-05-19T09:54:43.775Z,99.90
2019-05-19T09:56:59.952Z,99.90
2019-05-19T09:59:27.460Z,99.90
2019-05-19T10:01:54.715Z,99.90
2019-05-19T10:04:22.115Z,99.90
2019-05-19T10:06:49.424Z,99.90
2019-05-19T10:09:49.943Z,99.90
2019-05-19T10:12:17.193Z,99.90
2019-05-19T10:14:44.654Z,99.90
2019-05-19T10:17:12.127Z,99.90
2019-05-19T10:19:39.750Z,99.90
2019-05-19T10:22:07.134Z,99.90
2019-05-19T10:24:34.614Z,99.90
2019-05-19T10:27:02.081Z,99.90
2019-05-19T10:29:29.437Z,99.90
2019-05-19T10:31:56.875Z,99.90
2019-05-19T10:34:43.734Z,99.90
2019-05-19T10:37:11.331Z,99.90
2019-05-19T10:39:38.755Z,99.90
2019-05-19T10:42:06.066Z,99.90
2019-05-19T10:44:33.361Z,99.90
2019-05-19T10:47:02.397Z,99.90
2019-05-19T10:49:29.723Z,99.90
2019-05-19T10:51:56.970Z,99.90
2019-05-19T10:54:24.220Z,99.90
2019-05-19T10:56:51.452Z,99.90
2019-05-19T10:59:18.720Z,99.90
2019-05-19T11:01:45.951Z,99.90
2019-05-19T11:04:13.259Z,99.90
2019-05-19T11:06:40.527Z,99.90
2019-05-19T11:09:07.888Z,99.90
2019-05-19T11:11:35.688Z,99.90
2019-05-19T11:14:03.433Z,99.90
2019-05-19T11:16:30.901Z,99.90
2019-05-19T11:18:59.078Z,99.90
2019-05-19T11:21:26.517Z,99.90
2019-05-19T11:23:54.021Z,99.90
2019-05-19T11:26:21.375Z,99.90
2019-05-19T11:28:48.665Z,99.90
2019-05-19T11:31:16.138Z,99.90
2019-05-19T11:33:43.867Z,99.90
2019-05-19T11:36:11.366Z,99.90
2019-05-19T11:38:39.816Z,99.90
2019-05-19T11:41:07.484Z,99.90
2019-05-19T11:43:34.926Z,99.90
2019-05-19T11:46:02.267Z,99.90
2019-05-19T11:48:29.636Z,99.90
2019-05-19T11:50:57.347Z,99.90
2019-05-19T11:53:24.751Z,99.90
2019-05-19T11:56:05.812Z,99.90
2019-05-19T11:58:22.316Z,99.90
2019-05-19T12:00:49.640Z,99.90
2019-05-19T12:03:18.247Z,99.90
2019-05-19T12:05:47.150Z,99.90
2019-05-19T12:08:14.655Z,99.90
2019-05-19T12:10:42.291Z,99.90
2019-05-19T12:13:09.576Z,99.90
2019-05-19T12:15:36.864Z,99.90
2019-05-19T12:18:04.132Z,99.90
2019-05-19T12:20:31.406Z,99.90
2019-05-19T12:22:58.751Z,99.90
2019-05-19T12:25:26.025Z,99.90
2019-05-19T12:27:53.288Z,99.90
2019-05-19T12:30:20.649Z,99.90
2019-05-19T12:32:47.945Z,99.90
2019-05-19T12:35:15.374Z,99.90
2019-05-19T12:37:42.603Z,99.90
2019-05-19T12:40:09.948Z,99.90
2019-05-19T12:42:37.287Z,99.90
2019-05-19T12:45:04.675Z,99.90
2019-05-19T12:47:31.961Z,99.90
2019-05-19T12:49:59.221Z,99.90
2019-05-19T12:52:26.439Z,99.90
2019-05-19T12:54:53.711Z,99.90
2019-05-19T12:57:21.435Z,99.90
2019-05-19T12:59:48.951Z,99.90
2019-05-19T13:02:16.295Z,99.90
2019-05-19T13:04:43.728Z,99.90
2019-05-19T13:07:10.999Z,99.90
2019-05-19T13:09:38.220Z,99.90
2019-05-19T13:12:05.535Z,99.90
2019-05-19T13:14:33.372Z,99.90
2019-05-19T13:17:00.926Z,99.90
2019-05-19T13:19:28.298Z,99.90
2019-05-19T13:21:56.038Z,99.90
2019-05-19T13:24:23.488Z,99.90
2019-05-19T13:26:56.545Z,99.90
2019-05-19T13:29:19.951Z,99.90
2019-05-19T13:31:47.299Z,99.90
2019-05-19T13:34:14.955Z,99.60
2019-05-19T13:36:42.223Z,99.60
2019-05-19T13:39:09.610Z,99.60
2019-05-19T13:41:37.744Z,98.90
2019-05-19T13:44:05.123Z,98.80
2019-05-19T13:46:32.557Z,99.40
2019-05-19T13:49:00.380Z,99.20
2019-05-19T13:51:27.985Z,99.00
2019-05-19T13:53:55.249Z,97.90
2019-05-19T13:56:22.547Z,97.60
2019-05-19T13:58:49.803Z,96.60
2019-05-19T14:01:28.116Z,96.70
2019-05-19T14:03:46.355Z,96.80
2019-05-19T14:06:13.968Z,97.30
2019-05-19T14:08:41.371Z,97.10
2019-05-19T14:11:08.635Z,97.00
2019-05-19T14:13:35.968Z,97.00
2019-05-19T14:16:03.237Z,96.90
2019-05-19T14:18:30.485Z,97.50
2019-05-19T14:20:57.887Z,96.80
2019-05-19T14:23:25.184Z,96.90
2019-05-19T14:25:52.415Z,96.90
2019-05-19T14:28:19.675Z,96.90
2019-05-19T14:30:47.974Z,95.40
2019-05-19T14:33:15.335Z,95.50
2019-05-19T14:35:42.591Z,95.30
2019-05-19T14:38:09.991Z,95.40
2019-05-19T14:40:37.214Z,95.30
2019-05-19T14:43:04.461Z,95.20
2019-05-19T14:45:31.933Z,95.40
2019-05-19T14:47:59.266Z,95.00
2019-05-19T14:50:26.532Z,95.00
2019-05-19T14:52:55.351Z,94.30
2019-05-19T14:55:22.670Z,94.50
2019-05-19T14:57:50.032Z,94.80
2019-05-19T15:00:17.886Z,95.00
2019-05-19T15:02:45.111Z,95.20
2019-05-19T15:05:12.753Z,95.50
2019-05-19T15:07:40.032Z,95.80
2019-05-19T15:10:08.024Z,96.60
2019-05-19T15:12:35.369Z,96.80
2019-05-19T15:15:02.798Z,97.00
2019-05-19T15:17:30.169Z,97.90
2019-05-19T15:19:57.538Z,99.90
2019-05-19T15:22:24.843Z,99.90
2019-05-19T15:24:52.258Z,99.90
2019-05-19T15:27:19.511Z,99.90
2019-05-19T15:29:48.338Z,99.90
2019-05-19T15:32:16.499Z,99.90
2019-05-19T15:34:43.719Z,99.90
2019-05-19T15:37:10.975Z,99.90
2019-05-19T15:39:38.263Z,99.90
2019-05-19T15:42:05.512Z,99.90
2019-05-19T15:44:32.754Z,99.90
2019-05-19T15:47:00.028Z,99.90
2019-05-19T15:49:27.305Z,99.90
2019-05-19T15:52:02.246Z,99.90
2019-05-19T15:54:23.907Z,99.90
2019-05-19T15:56:51.432Z,99.90
2019-05-19T15:59:18.791Z,99.90
2019-05-19T16:01:46.013Z,99.90
2019-05-19T16:04:13.394Z,99.90
2019-05-19T16:06:40.755Z,99.90
2019-05-19T16:09:08.079Z,99.90
2019-05-19T16:11:35.427Z,99.90
2019-05-19T16:14:02.775Z,99.90
2019-05-19T16:16:30.035Z,99.90
2019-05-19T16:18:57.303Z,99.90
2019-05-19T16:21:24.539Z,99.90
2019-05-19T16:23:51.812Z,99.90
2019-05-19T16:26:19.044Z,99.90
2019-05-19T16:28:46.306Z,99.90
2019-05-19T16:31:13.556Z,99.90
2019-05-19T16:33:40.791Z,99.90
2019-05-19T16:36:08.161Z,99.90
2019-05-19T16:38:35.487Z,99.90
2019-05-19T16:41:02.812Z,99.90
2019-05-19T16:43:30.131Z,99.90
2019-05-19T16:45:57.368Z,99.90
2019-05-19T16:48:24.747Z,99.90
2019-05-19T16:50:52.064Z,99.90
2019-05-19T16:53:20.319Z,99.90
2019-05-19T16:55:47.595Z,99.90
2019-05-19T16:58:21.237Z,99.90
2019-05-19T17:00:44.056Z,99.90
2019-05-19T17:03:11.438Z,99.90
2019-05-19T17:05:38.948Z,99.90
2019-05-19T17:08:06.432Z,99.90
2019-05-19T17:10:33.704Z,99.90
2019-05-19T17:13:01.028Z,99.90
2019-05-19T17:15:28.286Z,99.90
2019-05-19T17:17:55.708Z,99.90
2019-05-19T17:20:22.960Z,99.90
2019-05-19T17:22:50.196Z,99.90
2019-05-19T17:25:17.531Z,99.90
2019-05-19T17:27:44.798Z,99.90
2019-05-19T17:30:12.619Z,99.90
2019-05-19T17:32:39.955Z,99.90
2019-05-19T17:35:07.303Z,99.90
2019-05-19T17:37:34.556Z,99.90
2019-05-19T17:40:01.975Z,99.90
2019-05-19T17:42:29.333Z,99.90
2019-05-19T17:44:56.604Z,99.90
2019-05-19T17:47:23.912Z,99.90
2019-05-19T17:49:51.147Z,99.90
2019-05-19T17:52:18.383Z,99.90
2019-05-19T17:54:45.688Z,99.90
2019-05-19T17:57:32.568Z,99.90
2019-05-19T18:00:00.895Z,99.90
2019-05-19T18:02:28.210Z,99.90
2019-05-19T18:04:55.547Z,99.90
2019-05-19T18:07:22.817Z,99.90
2019-05-19T18:09:50.139Z,99.90
2019-05-19T18:12:17.513Z,99.90
2019-05-19T18:14:44.852Z,99.90
2019-05-19T18:17:12.084Z,99.90
2019-05-19T18:19:39.335Z,99.90
2019-05-19T18:22:07.015Z,99.90
2019-05-19T18:24:34.929Z,99.90
2019-05-19T18:27:02.544Z,99.90
2019-05-19T18:29:31.766Z,99.90
2019-05-19T18:31:59.277Z,99.90
2019-05-19T18:34:26.501Z,99.90
2019-05-19T18:36:53.731Z,99.90
2019-05-19T18:39:21.009Z,99.90
2019-05-19T18:41:48.332Z,99.90
2019-05-19T18:44:15.598Z,99.90
2019-05-19T18:46:43.511Z,99.90
2019-05-19T18:49:10.807Z,99.90
2019-05-19T18:51:38.056Z,99.90
2019-05-19T18:54:05.275Z,99.90
2019-05-19T18:56:32.521Z,99.90
2019-05-19T18:59:00.136Z,99.90
2019-05-19T19:01:28.401Z,99.90
2019-05-19T19:03:55.996Z,99.90
2019-05-19T19:06:28.396Z,99.90
2019-05-19T19:08:55.660Z,99.90
2019-05-19T19:11:22.888Z,99.90
2019-05-19T19:13:50.157Z,99.90
2019-05-19T19:16:17.387Z,99.90
2019-05-19T19:18:45.997Z,99.90
2019-05-19T19:21:13.328Z,99.90
2019-05-19T19:23:40.582Z,99.90
2019-05-19T19:26:07.948Z,99.90
2019-05-19T19:28:35.267Z,99.90
2019-05-19T19:31:02.518Z,99.90
2019-05-19T19:33:29.924Z,99.90
2019-05-19T19:35:57.367Z,99.90
2019-05-19T19:38:24.643Z,99.90
2019-05-19T19:40:54.173Z,99.90
2019-05-19T19:43:21.302Z,99.90
2019-05-19T19:45:48.648Z,99.90
2019-05-19T19:48:16.047Z,99.90
2019-05-19T19:50:43.371Z,99.90
2019-05-19T19:53:10.707Z,99.90
2019-05-19T19:55:37.977Z,99.90
2019-05-19T19:58:05.332Z,99.90
2019-05-19T20:00:40.164Z,99.90
2019-05-19T20:03:07.509Z,99.90
2019-05-19T20:05:34.759Z,99.90
2019-05-19T20:08:02.123Z,99.90
2019-05-19T20:10:29.394Z,99.90
2019-05-19T20:12:56.780Z,99.90
2019-05-19T20:15:24.004Z,99.90
2019-05-19T20:17:51.360Z,99.90
2019-05-19T20:20:18.607Z,99.90
2019-05-19T20:22:45.892Z,99.90
2019-05-19T20:25:13.206Z,99.90
2019-05-19T20:27:40.441Z,99.90
2019-05-19T20:30:07.888Z,99.90
2019-05-19T20:32:35.216Z,99.90
2019-05-19T20:35:02.583Z,99.90
2019-05-19T20:37:29.831Z,99.90
2019-05-19T20:39:57.265Z,99.90
2019-05-19T20:42:24.749Z,99.90
2019-05-19T20:44:52.040Z,99.90
2019-05-19T20:47:19.304Z,99.90
2019-05-19T20:49:46.600Z,99.90
2019-05-19T20:52:13.847Z,99.90
2019-05-19T20:54:41.107Z,99.90
2019-05-19T20:57:08.391Z,99.90
2019-05-19T20:59:35.756Z,99.90
2019-05-19T21:02:03.043Z,99.90
2019-05-19T21:04:30.359Z,99.90
2019-05-19T21:06:57.617Z,99.90
2019-05-19T21:09:24.912Z,99.90
2019-05-19T21:11:52.263Z,99.90
2019-05-19T21:14:19.508Z,99.90
2019-05-19T21:16:46.830Z,99.90
2019-05-19T21:19:14.071Z,99.90
2019-05-19T21:21:41.315Z,99.90
2019-05-19T21:24:08.557Z,99.90
2019-05-19T21:26:35.941Z,99.90
2019-05-19T21:29:03.180Z,99.90
2019-05-19T21:31:30.433Z,99.90
2019-05-19T21:33:57.683Z,99.90
2019-05-19T21:36:24.963Z,99.90
2019-05-19T21:38:52.186Z,99.90
2019-05-19T21:41:19.411Z,99.90
2019-05-19T21:43:46.687Z,99.90
2019-05-19T21:46:13.928Z,99.90
2019-05-19T21:48:41.180Z,99.90
2019-05-19T21:51:08.458Z,99.90
2019-05-19T21:53:36.061Z,99.90
2019-05-19T21:56:03.581Z,99.90
2019-05-19T21:58:31.004Z,99.90
2019-05-19T22:00:58.428Z,99.90
2019-05-19T22:03:25.665Z,99.90
2019-05-19T22:05:53.846Z,99.90
2019-05-19T22:08:21.166Z,99.90
2019-05-19T22:10:48.508Z,99.90
2019-05-19T22:13:15.843Z,99.90
2019-05-19T22:15:43.127Z,99.90
2019-05-19T22:18:10.407Z,99.90
2019-05-19T22:20:37.830Z,99.90
2019-05-19T22:23:05.203Z,99.90
2019-05-19T22:25:32.429Z,99.90
2019-05-19T22:27:59.663Z,99.90
2019-05-19T22:30:26.915Z,99.90
2019-05-19T22:32:54.267Z,99.90
2019-05-19T22:35:21.617Z,99.90
2019-05-19T22:37:48.870Z,99.90
2019-05-19T22:40:16.646Z,99.90
2019-05-19T22:42:44.820Z,99.90
2019-05-19T22:45:12.171Z,99.90
2019-05-19T22:47:39.401Z,99.90
2019-05-19T22:50:07.103Z,99.90
2019-05-19T22:52:34.367Z,99.90
2019-05-19T22:55:01.688Z,99.90
2019-05-19T22:57:28.924Z,99.90
2019-05-19T22:59:56.164Z,99.90
2019-05-19T23:02:23.446Z,99.90
2019-05-19T23:04:50.788Z,99.90
2019-05-19T23:07:18.133Z,99.90
2019-05-19T23:09:45.407Z,99.90
2019-05-19T23:12:12.653Z,99.90
2019-05-19T23:14:39.897Z,99.90
2019-05-19T23:17:07.239Z,99.90
2019-05-19T23:19:34.500Z,99.90
2019-05-19T23:22:01.750Z,99.90
2019-05-19T23:24:28.968Z,99.90
2019-05-19T23:26:56.231Z,99.90
2019-05-19T23:29:23.481Z,99.90
2019-05-19T23:31:50.727Z,99.90
2019-05-19T23:34:18.040Z,99.90
2019-05-19T23:36:45.303Z,99.90
2019-05-19T23:39:12.551Z,99.90
2019-05-19T23:41:39.861Z,99.90
2019-05-19T23:44:07.159Z,99.90
2019-05-19T23:46:34.420Z,99.90
2019-05-19T23:49:01.781Z,99.90
2019-05-19T23:51:29.019Z,99.90
2019-05-19T23:53:56.263Z,99.90
2019-05-19T23:56:23.487Z,99.90
2019-05-19T23:58:50.746Z,99.90
